AirNav   Duncan Aviation - Near you to keep you flying
 
 1573 users online  

3MA2 Baines Airport
Middlefield, Massachusetts, USA

GOING TO MIDDLEFIELD?


FAA INFORMATION EFFECTIVE 03 NOVEMBER 2022

Location

FAA Identifier: 3MA2
Lat/Long: 42-18-58.3150N 073-01-55.3660W
42-18.971917N 073-01.922767W
42.3161986,-73.0320461
(estimated)
Elevation: 1160 ft. / 354 m (estimated)
Variation: 14W (1985)
From city: 2 miles NE of MIDDLEFIELD, MA
Time zone: UTC -5 (UTC -4 during Daylight Saving Time)
Zip code: 01011

Airport Operations

Airport use: Private use. Permission required prior to landing
Activation date: 02/1987
Control tower: no
ARTCC: BOSTON CENTER
FSS: BURLINGTON FLIGHT SERVICE STATION
Attendance: UNATNDD
Segmented circle: no

Airport Communications

WX ASOS at PSF (13 nm NW): 135.375 (413-499-3273)
WX ASOS at BAF (17 nm SE): 127.1 (413-568-2267)

Nearby radio navigation aids

VOR radial/distance  VOR name  Freq  Var
CTRr305/4.0CHESTER VOR/DME115.1013W
BAFr317/16.8BARNES VORTAC113.0014W

 
NDB name  Hdg/Dist  Freq  Var  ID
PHILMONT096/30.927213WPFH .--. ..-. ....

Airport Services

Runway Information

Runway 15/33

Dimensions: 2200 x 100 ft. / 671 x 30 m
Surface: turf
RUNWAY 15  RUNWAY 33
Traffic pattern: leftleft

Airport Ownership and Management from official FAA records

Ownership: Privately-owned
Owner: RONALD & DONNA BAINES
BOX 194
BLANDFORD, MA 01008
Phone 413-848-2251
Manager: Phone 413-623-6441

Airport Operational Statistics

Aircraft based on the field: 1
Single engine airplanes: 1
    

Additional Remarks

FOR CD CTC YANKEE APCH AT 860-386-3597

Instrument Procedures

There are no published instrument procedures at 3MA2.

Some nearby airports with instrument procedures:

KPSF - Pittsfield Municipal Airport (13 nm NW)
KBAF - Westfield-Barnes Regional Airport (17 nm SE)
KGBR - Walter J Koladza Airport (18 nm SW)
7B2 - Northampton Airport (19 nm E)
KCEF - Westover Air Reserve Base/Metropolitan Airport (23 nm E)
 
Loc | Ops | Rwys | IFR | FBO | Links
Com | Nav | Svcs | Stats | Notes
Area around 3MA2 (Baines Airport)
 
Road maps at: MapQuest Bing Google
 
Aerial photo
No photo
 
Sectional chart

 
Airport distance calculator
Flying to Baines Airport? Find the distance to fly.

From to 3MA2

Sunrise and sunset
Times for 29-Nov-2022
 Local
(UTC-5)
 Zulu
(UTC)
Morning civil twilight06:2911:29
Sunrise07:0012:00
Sunset16:2121:21
Evening civil twilight16:5221:52

Current date and time
Zulu (UTC)  29-Nov-2022 15:38:07
Local (UTC-5)  29-Nov-2022 10:38:07
 
METAR
KPSF 
13nm NW 
291454Z AUTO VRB05KT 10SM OVC025 01/M05 A3025 RMK AO2 SLP251 T00111050 51023
KBAF 
17nm SE 
291453Z 32003KT 10SM OVC031 02/M04 A3031 RMK AO2 SLP271 T00221039 51031
KAQW 
24nm N 
291452Z AUTO A3029 RMK AO2 SLPNO 53024 PWINO FZRANO $
KCEF 
24nm E 
291455Z 00000KT 10SM BKN030 BKN250 02/M04 A3029 RMK AO2A SLP266 T00201041 52030
TAF
KPSF 
13nm NW 
291330Z 2913/3012 31005KT P6SM OVC023 TEMPO 2913/2917 SCT023 FM291700 24004KT P6SM SCT025 BKN200 FM300000 VRB03KT P6SM OVC200 FM300700 15004KT P6SM OVC020 WS020/17035KT
KBAF 
17nm SE 
291121Z 2912/3012 00000KT P6SM FEW200 FM291800 16003KT P6SM FEW250 FM300800 14003KT P6SM BKN030
NOTAMs
Click for the latest NOTAMs
NOTAMs are issued by the DoD/FAA and will open in a separate window not controlled by AirNav.

 

 
 

Would you like to see your business listed on this page?

 If your business provides an interesting product or service to pilots, flight crews, aircraft, or users of the Baines Airport, you should consider listing it here.  To start the listing process, click on the button below
 
Add a business
 

Other Pages about Baines Airport

Update a link
 
Copyright © AirNav, LLC. All rights reserved. Privacy Policy  Contact